sensor_id;sensor_type;location;lat;lon;timestamp;P1;durP1;ratioP1;P2;durP2;ratioP2
39776;SDS011;25453;48.162;14.510;2022-12-07T00:02:10;9.68;;;4.50;;
39776;SDS011;25453;48.162;14.510;2022-12-07T00:04:38;9.23;;;4.47;;
39776;SDS011;25453;48.162;14.510;2022-12-07T00:07:12;9.73;;;4.45;;
39776;SDS011;25453;48.162;14.510;2022-12-07T00:09:40;10.35;;;3.67;;
39776;SDS011;25453;48.162;14.510;2022-12-07T00:12:15;8.70;;;4.03;;
39776;SDS011;25453;48.162;14.510;2022-12-07T00:14:50;8.50;;;3.90;;
39776;SDS011;25453;48.162;14.510;2022-12-07T00:17:18;14.38;;;5.85;;
39776;SDS011;25453;48.162;14.510;2022-12-07T00:19:52;11.18;;;4.85;;
39776;SDS011;25453;48.162;14.510;2022-12-07T00:22:19;9.30;;;4.32;;
39776;SDS011;25453;48.162;14.510;2022-12-07T00:25:00;11.13;;;4.68;;
39776;SDS011;25453;48.162;14.510;2022-12-07T00:27:28;10.57;;;4.60;;
39776;SDS011;25453;48.162;14.510;2022-12-07T00:30:02;12.68;;;5.03;;
39776;SDS011;25453;48.162;14.510;2022-12-07T00:32:30;12.93;;;5.18;;
39776;SDS011;25453;48.162;14.510;2022-12-07T00:35:04;12.55;;;5.32;;
39776;SDS011;25453;48.162;14.510;2022-12-07T00:37:39;11.65;;;5.07;;
39776;SDS011;25453;48.162;14.510;2022-12-07T00:40:07;11.25;;;5.10;;
39776;SDS011;25453;48.162;14.510;2022-12-07T00:45:15;9.35;;;4.43;;
39776;SDS011;25453;48.162;14.510;2022-12-07T00:47:42;16.73;;;5.80;;
39776;SDS011;25453;48.162;14.510;2022-12-07T00:50:16;14.10;;;5.85;;
39776;SDS011;25453;48.162;14.510;2022-12-07T00:52:43;12.35;;;5.15;;
39776;SDS011;25453;48.162;14.510;2022-12-07T00:55:17;11.95;;;5.00;;
39776;SDS011;25453;48.162;14.510;2022-12-07T00:57:44;12.07;;;4.47;;
39776;SDS011;25453;48.162;14.510;2022-12-07T01:00:20;13.13;;;5.70;;
39776;SDS011;25453;48.162;14.510;2022-12-07T01:02:48;14.57;;;5.63;;
39776;SDS011;25453;48.162;14.510;2022-12-07T01:05:22;14.75;;;5.07;;
39776;SDS011;25453;48.162;14.510;2022-12-07T01:07:49;11.98;;;5.25;;
39776;SDS011;25453;48.162;14.510;2022-12-07T01:10:23;14.05;;;5.43;;
39776;SDS011;25453;48.162;14.510;2022-12-07T01:12:50;11.18;;;4.55;;
39776;SDS011;25453;48.162;14.510;2022-12-07T01:15:24;11.05;;;5.07;;
39776;SDS011;25453;48.162;14.510;2022-12-07T01:17:53;8.88;;;4.10;;
39776;SDS011;25453;48.162;14.510;2022-12-07T01:20:28;9.90;;;4.07;;
39776;SDS011;25453;48.162;14.510;2022-12-07T01:22:56;12.45;;;4.47;;
39776;SDS011;25453;48.162;14.510;2022-12-07T01:25:30;13.88;;;4.80;;
39776;SDS011;25453;48.162;14.510;2022-12-07T01:28:11;8.43;;;3.97;;
39776;SDS011;25453;48.162;14.510;2022-12-07T01:30:53;11.38;;;4.75;;
39776;SDS011;25453;48.162;14.510;2022-12-07T01:33:29;7.07;;;3.58;;
39776;SDS011;25453;48.162;14.510;2022-12-07T01:36:13;9.18;;;3.88;;
39776;SDS011;25453;48.162;14.510;2022-12-07T01:38:45;12.35;;;4.75;;
39776;SDS011;25453;48.162;14.510;2022-12-07T01:46:41;13.10;;;4.68;;
39776;SDS011;25453;48.162;14.510;2022-12-07T01:52:43;12.50;;;4.43;;
39776;SDS011;25453;48.162;14.510;2022-12-07T01:55:04;9.13;;;3.97;;
39776;SDS011;25453;48.162;14.510;2022-12-07T01:57:39;9.07;;;4.07;;
39776;SDS011;25453;48.162;14.510;2022-12-07T02:00:15;12.57;;;4.72;;
39776;SDS011;25453;48.162;14.510;2022-12-07T02:02:46;11.23;;;5.18;;
39776;SDS011;25453;48.162;14.510;2022-12-07T02:05:27;7.78;;;3.42;;
39776;SDS011;25453;48.162;14.510;2022-12-07T02:08:01;8.50;;;3.88;;
39776;SDS011;25453;48.162;14.510;2022-12-07T02:10:36;9.98;;;3.70;;
39776;SDS011;25453;48.162;14.510;2022-12-07T02:13:15;9.30;;;3.38;;
39776;SDS011;25453;48.162;14.510;2022-12-07T02:24:59;6.10;;;3.10;;
39776;SDS011;25453;48.162;14.510;2022-12-07T02:28:02;6.38;;;3.30;;
39776;SDS011;25453;48.162;14.510;2022-12-07T02:30:52;7.88;;;3.30;;
39776;SDS011;25453;48.162;14.510;2022-12-07T02:33:26;8.93;;;3.45;;
39776;SDS011;25453;48.162;14.510;2022-12-07T02:36:10;10.68;;;3.75;;
39776;SDS011;25453;48.162;14.510;2022-12-07T02:41:55;9.65;;;2.97;;
39776;SDS011;25453;48.162;14.510;2022-12-07T02:44:41;8.38;;;3.75;;
39776;SDS011;25453;48.162;14.510;2022-12-07T02:47:12;10.18;;;3.45;;
39776;SDS011;25453;48.162;14.510;2022-12-07T02:49:50;11.60;;;4.13;;
39776;SDS011;25453;48.162;14.510;2022-12-07T02:52:19;8.98;;;3.95;;
39776;SDS011;25453;48.162;14.510;2022-12-07T02:54:53;8.13;;;3.63;;
39776;SDS011;25453;48.162;14.510;2022-12-07T03:00:24;7.25;;;3.22;;
39776;SDS011;25453;48.162;14.510;2022-12-07T03:03:06;8.05;;;3.75;;
39776;SDS011;25453;48.162;14.510;2022-12-07T03:11:35;10.45;;;3.90;;
39776;SDS011;25453;48.162;14.510;2022-12-07T03:14:22;9.50;;;3.67;;
39776;SDS011;25453;48.162;14.510;2022-12-07T03:17:08;8.38;;;2.67;;
39776;SDS011;25453;48.162;14.510;2022-12-07T03:19:51;7.18;;;3.05;;
39776;SDS011;25453;48.162;14.510;2022-12-07T03:22:23;5.45;;;2.83;;
39776;SDS011;25453;48.162;14.510;2022-12-07T03:27:41;8.23;;;3.28;;
39776;SDS011;25453;48.162;14.510;2022-12-07T03:30:17;9.23;;;3.30;;
39776;SDS011;25453;48.162;14.510;2022-12-07T03:35:38;7.25;;;3.00;;
39776;SDS011;25453;48.162;14.510;2022-12-07T03:38:23;8.13;;;3.45;;
39776;SDS011;25453;48.162;14.510;2022-12-07T03:41:09;6.03;;;3.05;;
39776;SDS011;25453;48.162;14.510;2022-12-07T03:43:44;5.05;;;2.42;;
39776;SDS011;25453;48.162;14.510;2022-12-07T03:49:31;6.13;;;2.88;;
39776;SDS011;25453;48.162;14.510;2022-12-07T03:52:26;7.07;;;2.75;;
39776;SDS011;25453;48.162;14.510;2022-12-07T03:55:29;8.63;;;3.13;;
39776;SDS011;25453;48.162;14.510;2022-12-07T03:58:05;6.10;;;2.60;;
39776;SDS011;25453;48.162;14.510;2022-12-07T04:00:42;8.18;;;2.97;;
39776;SDS011;25453;48.162;14.510;2022-12-07T04:03:12;5.18;;;2.38;;
39776;SDS011;25453;48.162;14.510;2022-12-07T04:05:39;6.15;;;2.78;;
39776;SDS011;25453;48.162;14.510;2022-12-07T04:08:15;5.85;;;2.92;;
39776;SDS011;25453;48.162;14.510;2022-12-07T04:10:49;8.30;;;3.85;;
39776;SDS011;25453;48.162;14.510;2022-12-07T04:13:17;6.03;;;2.60;;
39776;SDS011;25453;48.162;14.510;2022-12-07T04:15:51;8.18;;;3.17;;
39776;SDS011;25453;48.162;14.510;2022-12-07T04:18:18;5.70;;;2.58;;
39776;SDS011;25453;48.162;14.510;2022-12-07T04:20:52;5.90;;;2.63;;
39776;SDS011;25453;48.162;14.510;2022-12-07T04:23:26;6.18;;;2.90;;
39776;SDS011;25453;48.162;14.510;2022-12-07T04:26:06;6.28;;;3.03;;
39776;SDS011;25453;48.162;14.510;2022-12-07T04:28:40;7.50;;;2.70;;
39776;SDS011;25453;48.162;14.510;2022-12-07T04:31:08;6.43;;;2.75;;
39776;SDS011;25453;48.162;14.510;2022-12-07T04:33:42;5.60;;;2.63;;
39776;SDS011;25453;48.162;14.510;2022-12-07T04:36:16;7.53;;;3.05;;
39776;SDS011;25453;48.162;14.510;2022-12-07T04:38:43;7.03;;;3.65;;
39776;SDS011;25453;48.162;14.510;2022-12-07T04:41:11;6.03;;;2.90;;
39776;SDS011;25453;48.162;14.510;2022-12-07T04:43:46;7.68;;;4.00;;
39776;SDS011;25453;48.162;14.510;2022-12-07T04:46:13;8.20;;;3.35;;
39776;SDS011;25453;48.162;14.510;2022-12-07T04:48:47;7.05;;;3.47;;
39776;SDS011;25453;48.162;14.510;2022-12-07T04:51:15;7.22;;;3.30;;
39776;SDS011;25453;48.162;14.510;2022-12-07T04:53:54;5.80;;;3.40;;
39776;SDS011;25453;48.162;14.510;2022-12-07T04:56:22;8.57;;;3.38;;
39776;SDS011;25453;48.162;14.510;2022-12-07T04:58:57;5.45;;;2.92;;
39776;SDS011;25453;48.162;14.510;2022-12-07T05:01:24;5.05;;;2.10;;
39776;SDS011;25453;48.162;14.510;2022-12-07T05:03:58;6.32;;;3.08;;
39776;SDS011;25453;48.162;14.510;2022-12-07T05:06:32;7.60;;;3.20;;
39776;SDS011;25453;48.162;14.510;2022-12-07T05:09:06;7.18;;;2.78;;
39776;SDS011;25453;48.162;14.510;2022-12-07T05:11:33;7.10;;;2.90;;
39776;SDS011;25453;48.162;14.510;2022-12-07T05:14:20;5.35;;;2.65;;
39776;SDS011;25453;48.162;14.510;2022-12-07T05:16:48;5.78;;;2.92;;
39776;SDS011;25453;48.162;14.510;2022-12-07T05:19:23;5.25;;;2.38;;
39776;SDS011;25453;48.162;14.510;2022-12-07T05:21:50;7.22;;;2.90;;
39776;SDS011;25453;48.162;14.510;2022-12-07T05:24:24;6.35;;;3.25;;
39776;SDS011;25453;48.162;14.510;2022-12-07T05:26:58;5.85;;;2.80;;
39776;SDS011;25453;48.162;14.510;2022-12-07T05:29:33;7.65;;;2.78;;
39776;SDS011;25453;48.162;14.510;2022-12-07T05:32:07;4.55;;;2.03;;
39776;SDS011;25453;48.162;14.510;2022-12-07T05:34:34;6.65;;;2.92;;
39776;SDS011;25453;48.162;14.510;2022-12-07T05:37:08;6.35;;;2.97;;
39776;SDS011;25453;48.162;14.510;2022-12-07T05:39:36;5.65;;;2.65;;
39776;SDS011;25453;48.162;14.510;2022-12-07T05:42:14;6.05;;;2.55;;
39776;SDS011;25453;48.162;14.510;2022-12-07T05:44:45;5.72;;;2.33;;
39776;SDS011;25453;48.162;14.510;2022-12-07T05:47:20;3.53;;;2.20;;
39776;SDS011;25453;48.162;14.510;2022-12-07T05:49:48;4.78;;;2.42;;
39776;SDS011;25453;48.162;14.510;2022-12-07T05:52:22;5.15;;;2.25;;
39776;SDS011;25453;48.162;14.510;2022-12-07T05:54:50;6.30;;;2.83;;
39776;SDS011;25453;48.162;14.510;2022-12-07T05:57:24;4.68;;;2.58;;
39776;SDS011;25453;48.162;14.510;2022-12-07T05:59:51;5.60;;;2.38;;
39776;SDS011;25453;48.162;14.510;2022-12-07T06:02:26;5.15;;;2.40;;
39776;SDS011;25453;48.162;14.510;2022-12-07T06:05:00;8.05;;;2.85;;
39776;SDS011;25453;48.162;14.510;2022-12-07T06:07:34;6.20;;;2.92;;
39776;SDS011;25453;48.162;14.510;2022-12-07T06:10:05;5.65;;;3.10;;
39776;SDS011;25453;48.162;14.510;2022-12-07T06:12:42;5.05;;;2.45;;
39776;SDS011;25453;48.162;14.510;2022-12-07T06:15:19;5.30;;;2.55;;
39776;SDS011;25453;48.162;14.510;2022-12-07T06:17:53;4.72;;;2.45;;
39776;SDS011;25453;48.162;14.510;2022-12-07T06:20:20;5.15;;;2.60;;
39776;SDS011;25453;48.162;14.510;2022-12-07T06:22:54;4.97;;;2.92;;
39776;SDS011;25453;48.162;14.510;2022-12-07T06:25:21;5.30;;;2.75;;
39776;SDS011;25453;48.162;14.510;2022-12-07T06:28:01;5.40;;;2.50;;
39776;SDS011;25453;48.162;14.510;2022-12-07T06:30:35;5.20;;;2.28;;
39776;SDS011;25453;48.162;14.510;2022-12-07T06:33:09;5.43;;;2.35;;
39776;SDS011;25453;48.162;14.510;2022-12-07T06:35:43;5.45;;;2.83;;
39776;SDS011;25453;48.162;14.510;2022-12-07T06:38:10;5.78;;;2.80;;
39776;SDS011;25453;48.162;14.510;2022-12-07T06:40:46;5.95;;;2.53;;
39776;SDS011;25453;48.162;14.510;2022-12-07T06:43:17;7.50;;;3.58;;
39776;SDS011;25453;48.162;14.510;2022-12-07T06:45:52;6.22;;;2.72;;
39776;SDS011;25453;48.162;14.510;2022-12-07T06:48:19;6.70;;;3.28;;
39776;SDS011;25453;48.162;14.510;2022-12-07T06:50:53;5.90;;;3.20;;
39776;SDS011;25453;48.162;14.510;2022-12-07T06:53:21;7.22;;;3.17;;
39776;SDS011;25453;48.162;14.510;2022-12-07T06:55:55;7.20;;;3.38;;
39776;SDS011;25453;48.162;14.510;2022-12-07T06:58:22;7.43;;;4.13;;
39776;SDS011;25453;48.162;14.510;2022-12-07T07:00:56;5.43;;;2.70;;
39776;SDS011;25453;48.162;14.510;2022-12-07T07:03:30;6.47;;;3.22;;
39776;SDS011;25453;48.162;14.510;2022-12-07T07:05:58;7.57;;;3.53;;
39776;SDS011;25453;48.162;14.510;2022-12-07T07:08:32;5.47;;;2.70;;
39776;SDS011;25453;48.162;14.510;2022-12-07T07:11:00;6.85;;;3.58;;
39776;SDS011;25453;48.162;14.510;2022-12-07T07:13:35;8.60;;;3.92;;
39776;SDS011;25453;48.162;14.510;2022-12-07T07:16:06;7.20;;;3.60;;
39776;SDS011;25453;48.162;14.510;2022-12-07T07:21:09;6.53;;;3.03;;
39776;SDS011;25453;48.162;14.510;2022-12-07T07:23:46;8.38;;;3.90;;
39776;SDS011;25453;48.162;14.510;2022-12-07T07:26:20;9.07;;;3.53;;
39776;SDS011;25453;48.162;14.510;2022-12-07T07:28:55;6.35;;;3.20;;
39776;SDS011;25453;48.162;14.510;2022-12-07T07:31:29;6.57;;;3.27;;
39776;SDS011;25453;48.162;14.510;2022-12-07T07:33:56;6.60;;;3.47;;
39776;SDS011;25453;48.162;14.510;2022-12-07T07:36:30;6.25;;;3.22;;
39776;SDS011;25453;48.162;14.510;2022-12-07T07:38:57;7.32;;;3.45;;
39776;SDS011;25453;48.162;14.510;2022-12-07T07:41:31;5.75;;;2.90;;
39776;SDS011;25453;48.162;14.510;2022-12-07T07:44:05;8.60;;;3.67;;
39776;SDS011;25453;48.162;14.510;2022-12-07T07:46:32;6.95;;;2.97;;
39776;SDS011;25453;48.162;14.510;2022-12-07T07:49:06;5.35;;;2.92;;
39776;SDS011;25453;48.162;14.510;2022-12-07T07:51:34;7.63;;;3.15;;
39776;SDS011;25453;48.162;14.510;2022-12-07T07:54:08;6.38;;;2.95;;
39776;SDS011;25453;48.162;14.510;2022-12-07T07:56:35;5.85;;;2.92;;
39776;SDS011;25453;48.162;14.510;2022-12-07T07:59:10;6.22;;;2.67;;
39776;SDS011;25453;48.162;14.510;2022-12-07T08:01:44;6.25;;;2.67;;
39776;SDS011;25453;48.162;14.510;2022-12-07T08:04:18;5.35;;;2.40;;
39776;SDS011;25453;48.162;14.510;2022-12-07T08:06:52;5.78;;;2.25;;
39776;SDS011;25453;48.162;14.510;2022-12-07T08:09:20;6.40;;;2.65;;
39776;SDS011;25453;48.162;14.510;2022-12-07T08:11:54;5.72;;;2.28;;
39776;SDS011;25453;48.162;14.510;2022-12-07T08:14:23;4.53;;;2.40;;
39776;SDS011;25453;48.162;14.510;2022-12-07T08:17:07;4.20;;;2.30;;
39776;SDS011;25453;48.162;14.510;2022-12-07T08:19:41;6.07;;;2.53;;
39776;SDS011;25453;48.162;14.510;2022-12-07T08:22:08;5.10;;;2.50;;
39776;SDS011;25453;48.162;14.510;2022-12-07T08:24:48;7.38;;;2.83;;
39776;SDS011;25453;48.162;14.510;2022-12-07T08:27:29;4.93;;;2.45;;
39776;SDS011;25453;48.162;14.510;2022-12-07T08:29:56;7.90;;;2.50;;
39776;SDS011;25453;48.162;14.510;2022-12-07T08:32:24;5.88;;;2.42;;
39776;SDS011;25453;48.162;14.510;2022-12-07T08:34:58;4.95;;;2.40;;
39776;SDS011;25453;48.162;14.510;2022-12-07T08:37:25;3.65;;;1.95;;
39776;SDS011;25453;48.162;14.510;2022-12-07T08:39:59;4.38;;;2.20;;
39776;SDS011;25453;48.162;14.510;2022-12-07T08:42:27;5.50;;;2.63;;
39776;SDS011;25453;48.162;14.510;2022-12-07T08:45:05;5.57;;;2.78;;
39776;SDS011;25453;48.162;14.510;2022-12-07T08:47:34;3.72;;;2.10;;
39776;SDS011;25453;48.162;14.510;2022-12-07T08:50:10;4.32;;;2.10;;
39776;SDS011;25453;48.162;14.510;2022-12-07T08:52:48;4.82;;;2.20;;
39776;SDS011;25453;48.162;14.510;2022-12-07T08:55:28;4.82;;;2.30;;
39776;SDS011;25453;48.162;14.510;2022-12-07T08:58:02;4.65;;;2.17;;
39776;SDS011;25453;48.162;14.510;2022-12-07T09:00:31;4.65;;;2.08;;
39776;SDS011;25453;48.162;14.510;2022-12-07T09:03:05;5.55;;;2.63;;
39776;SDS011;25453;48.162;14.510;2022-12-07T09:05:39;5.45;;;2.42;;
39776;SDS011;25453;48.162;14.510;2022-12-07T09:08:07;4.18;;;2.00;;
39776;SDS011;25453;48.162;14.510;2022-12-07T09:10:41;4.82;;;2.08;;
39776;SDS011;25453;48.162;14.510;2022-12-07T09:13:15;4.45;;;2.22;;
39776;SDS011;25453;48.162;14.510;2022-12-07T09:15:42;5.88;;;2.10;;
39776;SDS011;25453;48.162;14.510;2022-12-07T09:18:16;5.82;;;2.00;;
39776;SDS011;25453;48.162;14.510;2022-12-07T09:20:50;6.32;;;2.83;;
39776;SDS011;25453;48.162;14.510;2022-12-07T09:23:24;4.82;;;2.20;;
39776;SDS011;25453;48.162;14.510;2022-12-07T09:26:05;6.53;;;2.42;;
39776;SDS011;25453;48.162;14.510;2022-12-07T09:28:46;5.82;;;2.38;;
39776;SDS011;25453;48.162;14.510;2022-12-07T09:31:20;4.15;;;2.03;;
39776;SDS011;25453;48.162;14.510;2022-12-07T09:33:54;5.72;;;2.28;;
39776;SDS011;25453;48.162;14.510;2022-12-07T09:36:30;6.53;;;2.45;;
39776;SDS011;25453;48.162;14.510;2022-12-07T09:39:04;4.83;;;2.17;;
39776;SDS011;25453;48.162;14.510;2022-12-07T09:41:32;6.47;;;2.97;;
39776;SDS011;25453;48.162;14.510;2022-12-07T09:44:11;5.75;;;1.83;;
39776;SDS011;25453;48.162;14.510;2022-12-07T09:46:59;6.22;;;2.47;;
39776;SDS011;25453;48.162;14.510;2022-12-07T09:49:33;5.93;;;2.55;;
39776;SDS011;25453;48.162;14.510;2022-12-07T09:52:02;6.05;;;2.35;;
39776;SDS011;25453;48.162;14.510;2022-12-07T09:54:51;3.83;;;2.10;;
39776;SDS011;25453;48.162;14.510;2022-12-07T09:57:30;4.85;;;2.35;;
39776;SDS011;25453;48.162;14.510;2022-12-07T10:00:16;7.57;;;2.97;;
39776;SDS011;25453;48.162;14.510;2022-12-07T10:02:56;6.93;;;3.17;;
39776;SDS011;25453;48.162;14.510;2022-12-07T10:05:43;9.73;;;2.83;;
39776;SDS011;25453;48.162;14.510;2022-12-07T10:08:14;4.88;;;2.50;;
39776;SDS011;25453;48.162;14.510;2022-12-07T10:10:51;7.43;;;2.85;;
39776;SDS011;25453;48.162;14.510;2022-12-07T10:13:34;5.80;;;3.22;;
39776;SDS011;25453;48.162;14.510;2022-12-07T10:16:04;6.95;;;3.30;;
39776;SDS011;25453;48.162;14.510;2022-12-07T10:19:16;7.20;;;3.50;;
39776;SDS011;25453;48.162;14.510;2022-12-07T10:22:01;6.32;;;2.72;;
39776;SDS011;25453;48.162;14.510;2022-12-07T10:24:52;6.25;;;3.25;;
39776;SDS011;25453;48.162;14.510;2022-12-07T10:27:33;6.45;;;3.28;;
39776;SDS011;25453;48.162;14.510;2022-12-07T10:30:01;5.82;;;2.58;;
39776;SDS011;25453;48.162;14.510;2022-12-07T10:32:46;7.97;;;2.90;;
39776;SDS011;25453;48.162;14.510;2022-12-07T10:35:24;8.05;;;3.38;;
39776;SDS011;25453;48.162;14.510;2022-12-07T10:37:58;5.95;;;2.75;;
39776;SDS011;25453;48.162;14.510;2022-12-07T10:40:34;5.35;;;2.85;;
39776;SDS011;25453;48.162;14.510;2022-12-07T10:57:00;7.50;;;3.47;;
39776;SDS011;25453;48.162;14.510;2022-12-07T11:08:00;7.97;;;3.47;;
39776;SDS011;25453;48.162;14.510;2022-12-07T11:10:50;7.90;;;4.05;;
39776;SDS011;25453;48.162;14.510;2022-12-07T11:16:32;10.77;;;4.00;;
39776;SDS011;25453;48.162;14.510;2022-12-07T11:22:09;10.35;;;4.20;;
39776;SDS011;25453;48.162;14.510;2022-12-07T11:25:14;9.63;;;4.47;;
39776;SDS011;25453;48.162;14.510;2022-12-07T11:28:18;7.63;;;3.38;;
39776;SDS011;25453;48.162;14.510;2022-12-07T11:31:24;8.98;;;3.95;;
39776;SDS011;25453;48.162;14.510;2022-12-07T11:34:41;8.98;;;3.28;;
39776;SDS011;25453;48.162;14.510;2022-12-07T11:37:34;9.05;;;4.10;;
39776;SDS011;25453;48.162;14.510;2022-12-07T11:43:46;8.48;;;3.60;;
39776;SDS011;25453;48.162;14.510;2022-12-07T11:46:04;7.00;;;3.13;;
39776;SDS011;25453;48.162;14.510;2022-12-07T11:51:24;10.40;;;4.18;;
39776;SDS011;25453;48.162;14.510;2022-12-07T11:54:21;10.00;;;4.35;;
39776;SDS011;25453;48.162;14.510;2022-12-07T11:56:57;9.80;;;4.40;;
39776;SDS011;25453;48.162;14.510;2022-12-07T11:59:45;9.45;;;4.13;;
39776;SDS011;25453;48.162;14.510;2022-12-07T12:02:23;8.48;;;3.47;;
39776;SDS011;25453;48.162;14.510;2022-12-07T12:05:22;7.05;;;3.90;;
39776;SDS011;25453;48.162;14.510;2022-12-07T12:07:55;8.40;;;3.85;;
39776;SDS011;25453;48.162;14.510;2022-12-07T12:14:17;8.73;;;3.75;;
39776;SDS011;25453;48.162;14.510;2022-12-07T12:25:59;7.65;;;3.28;;
39776;SDS011;25453;48.162;14.510;2022-12-07T12:33:55;6.60;;;3.67;;
39776;SDS011;25453;48.162;14.510;2022-12-07T12:46:57;7.85;;;3.45;;
39776;SDS011;25453;48.162;14.510;2022-12-07T12:49:34;6.93;;;3.13;;
39776;SDS011;25453;48.162;14.510;2022-12-07T12:57:42;6.30;;;2.83;;
39776;SDS011;25453;48.162;14.510;2022-12-07T13:00:16;6.50;;;3.08;;
39776;SDS011;25453;48.162;14.510;2022-12-07T13:02:53;7.28;;;3.25;;
39776;SDS011;25453;48.162;14.510;2022-12-07T13:05:27;4.65;;;2.33;;
39776;SDS011;25453;48.162;14.510;2022-12-07T13:08:02;5.88;;;2.60;;
39776;SDS011;25453;48.162;14.510;2022-12-07T13:11:15;5.75;;;2.40;;
39776;SDS011;25453;48.162;14.510;2022-12-07T13:13:44;5.20;;;2.28;;
39776;SDS011;25453;48.162;14.510;2022-12-07T13:18:55;3.92;;;1.80;;
39776;SDS011;25453;48.162;14.510;2022-12-07T13:23:59;4.65;;;2.00;;
39776;SDS011;25453;48.162;14.510;2022-12-07T13:26:42;5.95;;;2.10;;
39776;SDS011;25453;48.162;14.510;2022-12-07T13:29:35;7.30;;;2.70;;
39776;SDS011;25453;48.162;14.510;2022-12-07T13:32:23;5.28;;;2.33;;
39776;SDS011;25453;48.162;14.510;2022-12-07T13:34:52;6.72;;;2.33;;
39776;SDS011;25453;48.162;14.510;2022-12-07T13:37:27;7.47;;;2.85;;
39776;SDS011;25453;48.162;14.510;2022-12-07T13:40:16;4.97;;;2.60;;
39776;SDS011;25453;48.162;14.510;2022-12-07T13:43:03;7.57;;;2.90;;
39776;SDS011;25453;48.162;14.510;2022-12-07T13:45:39;5.65;;;2.70;;
39776;SDS011;25453;48.162;14.510;2022-12-07T13:48:30;6.03;;;2.42;;
39776;SDS011;25453;48.162;14.510;2022-12-07T13:51:18;7.07;;;2.75;;
39776;SDS011;25453;48.162;14.510;2022-12-07T13:54:01;5.65;;;2.72;;
39776;SDS011;25453;48.162;14.510;2022-12-07T13:56:35;5.45;;;2.72;;
39776;SDS011;25453;48.162;14.510;2022-12-07T13:59:21;6.35;;;2.80;;
39776;SDS011;25453;48.162;14.510;2022-12-07T14:01:58;5.45;;;2.47;;
39776;SDS011;25453;48.162;14.510;2022-12-07T14:04:36;5.40;;;2.50;;
39776;SDS011;25453;48.162;14.510;2022-12-07T14:07:24;4.57;;;2.05;;
39776;SDS011;25453;48.162;14.510;2022-12-07T14:10:00;5.72;;;2.50;;
39776;SDS011;25453;48.162;14.510;2022-12-07T14:12:36;6.82;;;2.20;;
39776;SDS011;25453;48.162;14.510;2022-12-07T14:15:04;5.18;;;2.00;;
39776;SDS011;25453;48.162;14.510;2022-12-07T14:20:38;7.10;;;2.67;;
39776;SDS011;25453;48.162;14.510;2022-12-07T14:23:22;7.03;;;2.38;;
39776;SDS011;25453;48.162;14.510;2022-12-07T14:26:32;4.68;;;2.05;;
39776;SDS011;25453;48.162;14.510;2022-12-07T14:32:18;5.50;;;2.20;;
39776;SDS011;25453;48.162;14.510;2022-12-07T14:37:31;6.47;;;2.65;;
39776;SDS011;25453;48.162;14.510;2022-12-07T14:39:59;4.82;;;1.95;;
39776;SDS011;25453;48.162;14.510;2022-12-07T14:42:33;5.38;;;2.33;;
39776;SDS011;25453;48.162;14.510;2022-12-07T14:45:01;6.20;;;2.15;;
39776;SDS011;25453;48.162;14.510;2022-12-07T14:47:36;4.68;;;2.17;;
39776;SDS011;25453;48.162;14.510;2022-12-07T14:50:23;3.30;;;1.77;;
39776;SDS011;25453;48.162;14.510;2022-12-07T14:52:59;4.53;;;2.22;;
39776;SDS011;25453;48.162;14.510;2022-12-07T14:55:50;4.10;;;1.77;;
39776;SDS011;25453;48.162;14.510;2022-12-07T14:58:24;6.00;;;2.33;;
39776;SDS011;25453;48.162;14.510;2022-12-07T15:00:52;8.32;;;2.83;;
39776;SDS011;25453;48.162;14.510;2022-12-07T15:03:26;5.47;;;2.25;;
39776;SDS011;25453;48.162;14.510;2022-12-07T15:05:54;5.55;;;2.35;;
39776;SDS011;25453;48.162;14.510;2022-12-07T15:08:28;4.80;;;1.80;;
39776;SDS011;25453;48.162;14.510;2022-12-07T15:10:55;4.80;;;2.33;;
39776;SDS011;25453;48.162;14.510;2022-12-07T15:13:29;4.57;;;2.20;;
39776;SDS011;25453;48.162;14.510;2022-12-07T15:16:22;6.88;;;2.75;;
39776;SDS011;25453;48.162;14.510;2022-12-07T15:18:49;6.82;;;2.58;;
39776;SDS011;25453;48.162;14.510;2022-12-07T15:24:19;7.18;;;2.33;;
39776;SDS011;25453;48.162;14.510;2022-12-07T15:26:59;8.32;;;3.30;;
39776;SDS011;25453;48.162;14.510;2022-12-07T15:29:33;9.27;;;3.00;;
39776;SDS011;25453;48.162;14.510;2022-12-07T15:32:01;6.45;;;3.22;;
39776;SDS011;25453;48.162;14.510;2022-12-07T15:34:35;7.07;;;2.88;;
39776;SDS011;25453;48.162;14.510;2022-12-07T15:37:06;6.35;;;3.33;;
39776;SDS011;25453;48.162;14.510;2022-12-07T15:39:41;5.30;;;2.60;;
39776;SDS011;25453;48.162;14.510;2022-12-07T15:42:09;9.55;;;3.70;;
39776;SDS011;25453;48.162;14.510;2022-12-07T15:44:43;7.75;;;3.03;;
39776;SDS011;25453;48.162;14.510;2022-12-07T15:47:39;7.15;;;3.72;;
39776;SDS011;25453;48.162;14.510;2022-12-07T15:50:35;8.45;;;4.15;;
39776;SDS011;25453;48.162;14.510;2022-12-07T15:53:02;8.23;;;3.30;;
39776;SDS011;25453;48.162;14.510;2022-12-07T15:55:38;7.47;;;3.80;;
39776;SDS011;25453;48.162;14.510;2022-12-07T15:58:13;7.07;;;3.40;;
39776;SDS011;25453;48.162;14.510;2022-12-07T16:00:47;10.02;;;3.80;;
39776;SDS011;25453;48.162;14.510;2022-12-07T16:03:21;9.25;;;4.28;;
39776;SDS011;25453;48.162;14.510;2022-12-07T16:05:51;10.05;;;3.75;;
39776;SDS011;25453;48.162;14.510;2022-12-07T16:08:26;10.10;;;4.43;;
39776;SDS011;25453;48.162;14.510;2022-12-07T16:11:05;9.93;;;4.38;;
39776;SDS011;25453;48.162;14.510;2022-12-07T16:13:34;11.48;;;4.63;;
39776;SDS011;25453;48.162;14.510;2022-12-07T16:16:13;11.02;;;4.43;;
39776;SDS011;25453;48.162;14.510;2022-12-07T16:18:46;11.35;;;4.93;;
39776;SDS011;25453;48.162;14.510;2022-12-07T16:21:20;11.98;;;4.38;;
39776;SDS011;25453;48.162;14.510;2022-12-07T16:23:59;13.65;;;4.47;;
39776;SDS011;25453;48.162;14.510;2022-12-07T16:26:33;8.48;;;4.35;;
39776;SDS011;25453;48.162;14.510;2022-12-07T16:29:22;9.57;;;4.65;;
39776;SDS011;25453;48.162;14.510;2022-12-07T16:31:56;12.13;;;4.78;;
39776;SDS011;25453;48.162;14.510;2022-12-07T16:34:24;11.20;;;4.90;;
39776;SDS011;25453;48.162;14.510;2022-12-07T16:36:58;10.73;;;4.28;;
39776;SDS011;25453;48.162;14.510;2022-12-07T16:39:33;7.82;;;4.50;;
39776;SDS011;25453;48.162;14.510;2022-12-07T16:42:01;10.98;;;4.55;;
39776;SDS011;25453;48.162;14.510;2022-12-07T16:44:35;12.27;;;5.30;;
39776;SDS011;25453;48.162;14.510;2022-12-07T16:47:09;11.38;;;4.63;;
39776;SDS011;25453;48.162;14.510;2022-12-07T16:49:36;10.13;;;4.57;;
39776;SDS011;25453;48.162;14.510;2022-12-07T16:52:10;12.30;;;5.70;;
39776;SDS011;25453;48.162;14.510;2022-12-07T16:54:46;10.70;;;5.18;;
39776;SDS011;25453;48.162;14.510;2022-12-07T16:57:21;12.63;;;4.90;;
39776;SDS011;25453;48.162;14.510;2022-12-07T16:59:49;12.48;;;4.85;;
39776;SDS011;25453;48.162;14.510;2022-12-07T17:02:26;15.20;;;5.57;;
39776;SDS011;25453;48.162;14.510;2022-12-07T17:05:01;9.13;;;4.20;;
39776;SDS011;25453;48.162;14.510;2022-12-07T17:07:32;10.23;;;4.40;;
39776;SDS011;25453;48.162;14.510;2022-12-07T17:10:07;9.00;;;4.32;;
39776;SDS011;25453;48.162;14.510;2022-12-07T17:12:43;9.63;;;3.60;;
39776;SDS011;25453;48.162;14.510;2022-12-07T17:15:31;10.85;;;4.55;;
39776;SDS011;25453;48.162;14.510;2022-12-07T17:18:05;9.73;;;4.28;;
39776;SDS011;25453;48.162;14.510;2022-12-07T17:20:39;11.38;;;4.10;;
39776;SDS011;25453;48.162;14.510;2022-12-07T17:23:07;9.48;;;4.80;;
39776;SDS011;25453;48.162;14.510;2022-12-07T17:25:41;10.40;;;3.95;;
39776;SDS011;25453;48.162;14.510;2022-12-07T17:28:17;10.05;;;3.75;;
39776;SDS011;25453;48.162;14.510;2022-12-07T17:30:50;12.02;;;4.43;;
39776;SDS011;25453;48.162;14.510;2022-12-07T17:33:24;10.65;;;4.18;;